Time;durP1;ratioP1;P1;durP2;ratioP2;P2;SDS_P1;SDS_P2;PMS_P1;PMS_P2;Temp;Humidity;BMP_temperature;BMP_pressure;BME280_temperature;BME280_humidity;BME280_pressure;Samples;Min_cycle;Max_cycle;Signal;HPM_P1;HPM_P2
2022/06/28 00:01:44;;;;;;;4.38;2.95;;;;;;;20.96;nan;-24399.84;4985173;28;20175;-59
2022/06/28 00:04:11;;;;;;;5.32;3.63;;;;;;;21.01;nan;-24401.09;4985465;28;20561;-58
2022/06/28 00:06:37;;;;;;;6.40;3.58;;;;;;;21.01;nan;-24401.22;4984442;28;20580;-59
2022/06/28 00:09:03;;;;;;;5.40;3.50;;;;;;;20.66;nan;-24391.50;4983124;28;20195;-59
2022/06/28 00:11:28;;;;;;;6.20;3.67;;;;;;;20.96;nan;-24399.84;4984006;28;20233;-59
2022/06/28 00:13:54;;;;;;;4.95;3.70;;;;;;;20.78;nan;-24394.84;4983358;28;20183;-58
2022/06/28 00:16:20;;;;;;;4.88;3.33;;;;;;;20.46;nan;-24385.97;4988783;28;20217;-58
2022/06/28 00:18:45;;;;;;;5.32;3.30;;;;;;;20.45;nan;-24385.81;4985053;28;20239;-59
2022/06/28 00:21:11;;;;;;;5.82;3.83;;;;;;;20.54;nan;-24388.31;4985477;28;20567;-59
2022/06/28 00:23:38;;;;;;;5.32;3.75;;;;;;;20.31;nan;-24381.94;4983433;28;20243;-59
2022/06/28 00:26:05;;;;;;;3.97;3.17;;;;;;;18.33;nan;-24327.41;4981137;28;20206;-59
2022/06/28 00:28:31;;;;;;;4.95;3.40;;;;;;;20.50;nan;-24387.22;4984314;28;20658;-59
2022/06/28 00:30:57;;;;;;;5.82;3.85;;;;;;;20.44;nan;-24385.53;4987117;28;22013;-59
2022/06/28 00:33:22;;;;;;;7.38;3.63;;;;;;;20.31;nan;-24381.78;4985007;28;20683;-58
2022/06/28 00:35:47;;;;;;;5.47;3.97;;;;;;;20.28;nan;-24381.22;4982041;28;20660;-58
2022/06/28 00:38:13;;;;;;;7.32;4.07;;;;;;;20.07;nan;-24375.41;4983669;28;20209;-58
2022/06/28 00:40:48;;;;;;;5.78;3.55;;;;;;;19.84;nan;-24369.00;4984069;28;20219;-58
2022/06/28 00:43:15;;;;;;;5.13;3.60;;;;;;;19.85;nan;-24369.28;4985151;28;21458;-59
2022/06/28 00:45:42;;;;;;;4.50;3.28;;;;;;;19.99;nan;-24373.03;4981827;28;20254;-59
2022/06/28 00:48:11;;;;;;;5.40;3.55;;;;;;;19.90;nan;-24370.53;4983880;28;20192;-59
2022/06/28 00:50:37;;;;;;;5.38;3.40;;;;;;;19.89;nan;-24370.25;4982758;28;20215;-59
2022/06/28 00:53:12;;;;;;;6.25;3.97;;;;;;;19.83;nan;-24368.72;4983532;28;20258;-59
2022/06/28 00:55:38;;;;;;;6.22;3.53;;;;;;;19.18;nan;-24350.94;4982629;28;20274;-59
2022/06/28 00:58:04;;;;;;;5.78;3.63;;;;;;;20.05;nan;-24374.84;4982030;28;20952;-58
2022/06/28 01:00:37;;;;;;;6.63;3.88;;;;;;;20.33;nan;-24382.34;4980054;28;20183;-58
2022/06/28 01:03:03;;;;;;;7.38;4.10;;;;;;;20.07;nan;-24375.41;4978332;28;20192;-57
2022/06/28 01:05:29;;;;;;;7.32;3.72;;;;;;;20.01;nan;-24373.72;4982348;28;20860;-59
2022/06/28 01:07:54;;;;;;;6.43;3.60;;;;;;;20.41;nan;-24384.72;4983160;28;20278;-59
2022/06/28 01:10:20;;;;;;;5.45;3.75;;;;;;;20.33;nan;-24382.50;4983093;28;20921;-58
2022/06/28 01:12:45;;;;;;;5.22;3.60;;;;;;;20.37;nan;-24383.47;4981553;28;20674;-59
2022/06/28 01:15:11;;;;;;;4.82;3.47;;;;;;;19.99;nan;-24373.03;4982517;28;20642;-60
2022/06/28 01:17:37;;;;;;;6.53;3.88;;;;;;;19.96;nan;-24372.34;4980006;28;20209;-58
2022/06/28 01:20:02;;;;;;;6.13;3.40;;;;;;;19.80;nan;-24367.91;4981555;28;20338;-59
2022/06/28 01:22:30;;;;;;;5.85;3.53;;;;;;;19.91;nan;-24370.97;4981796;28;20176;-59
2022/06/28 01:24:56;;;;;;;6.15;4.00;;;;;;;19.94;nan;-24371.66;4980248;28;20278;-58
2022/06/28 01:27:22;;;;;;;4.93;3.33;;;;;;;19.62;nan;-24362.91;4981035;28;20257;-59
2022/06/28 01:29:48;;;;;;;5.18;3.75;;;;;;;19.80;nan;-24368.03;4980959;28;20797;-58
2022/06/28 01:32:14;;;;;;;5.80;3.70;;;;;;;20.02;nan;-24374.00;4979953;28;20180;-59
2022/06/28 01:34:40;;;;;;;5.57;3.80;;;;;;;19.75;nan;-24366.50;4980293;28;22136;-59
2022/06/28 01:37:07;;;;;;;6.35;3.83;;;;;;;20.05;nan;-24374.84;4980802;28;22074;-59
2022/06/28 01:39:32;;;;;;;4.53;3.38;;;;;;;19.98;nan;-24372.91;4982100;28;20752;-59
2022/06/28 01:41:58;;;;;;;5.28;3.58;;;;;;;19.82;nan;-24368.59;4981849;28;20179;-59
2022/06/28 01:44:24;;;;;;;5.05;3.53;;;;;;;19.57;nan;-24361.66;4981117;28;20202;-58
2022/06/28 01:46:50;;;;;;;8.38;4.15;;;;;;;19.95;nan;-24372.06;4979548;28;20180;-58
2022/06/28 01:49:15;;;;;;;4.88;3.55;;;;;;;19.79;nan;-24367.75;4983940;28;20191;-59
2022/06/28 01:51:41;;;;;;;4.80;3.47;;;;;;;19.80;nan;-24368.03;4980123;28;20937;-59
2022/06/28 01:54:06;;;;;;;5.70;3.60;;;;;;;20.18;nan;-24378.47;4982412;28;20191;-59
2022/06/28 01:56:32;;;;;;;6.30;3.75;;;;;;;20.11;nan;-24376.38;4982598;28;20231;-59
2022/06/28 01:58:57;;;;;;;7.28;3.88;;;;;;;20.12;nan;-24376.66;4984397;28;20179;-59
2022/06/28 02:01:22;;;;;;;5.72;3.65;;;;;;;20.10;nan;-24376.25;4982086;28;20253;-59
2022/06/28 02:03:49;;;;;;;4.05;3.30;;;;;;;20.28;nan;-24381.22;4986105;28;20258;-58
2022/06/28 02:06:14;;;;;;;5.82;3.88;;;;;;;20.43;nan;-24385.28;4987881;28;20949;-59
2022/06/28 02:08:40;;;;;;;5.78;3.53;;;;;;;20.54;nan;-24388.31;4986548;28;20275;-59
2022/06/28 02:11:06;;;;;;;5.30;3.88;;;;;;;19.92;nan;-24371.09;4987482;28;20189;-58
2022/06/28 02:13:31;;;;;;;5.03;3.40;;;;;;;20.43;nan;-24385.13;4986187;28;20257;-59
2022/06/28 02:15:58;;;;;;;6.05;3.80;;;;;;;20.64;nan;-24391.09;4987186;28;20196;-59
2022/06/28 02:18:25;;;;;;;6.40;3.92;;;;;;;20.66;nan;-24391.66;5003713;28;21995;-60
2022/06/28 02:20:52;;;;;;;6.93;3.97;;;;;;;20.66;nan;-24391.50;4988114;28;20203;-60
2022/06/28 02:23:18;;;;;;;6.00;3.88;;;;;;;20.53;nan;-24388.03;4987631;28;20246;-60
2022/06/28 02:25:44;;;;;;;6.10;3.90;;;;;;;20.71;nan;-24392.91;4983322;28;20187;-59
2022/06/28 02:28:11;;;;;;;5.15;3.83;;;;;;;20.28;nan;-24381.22;4986232;28;20199;-59
2022/06/28 02:30:36;;;;;;;5.63;3.67;;;;;;;20.65;nan;-24391.22;4986057;28;20188;-58
2022/06/28 02:33:02;;;;;;;5.63;3.72;;;;;;;20.50;nan;-24387.22;4986907;28;20175;-58
2022/06/28 02:40:55;;;;;;;6.35;3.95;;;;;;;20.15;nan;-24377.47;4984396;28;20186;-60
2022/06/28 02:43:21;;;;;;;7.20;4.00;;;;;;;20.41;nan;-24384.72;4979675;28;20180;-60
2022/06/28 02:45:46;;;;;;;5.55;3.45;;;;;;;20.12;nan;-24376.78;4980322;28;20198;-58
2022/06/28 02:48:12;;;;;;;6.25;3.75;;;;;;;20.42;nan;-24384.84;4979925;28;20243;-60
2022/06/28 02:50:37;;;;;;;5.13;3.72;;;;;;;20.38;nan;-24383.75;4979655;28;20926;-58
2022/06/28 02:53:03;;;;;;;4.95;3.72;;;;;;;20.05;nan;-24374.84;4980744;28;20192;-59
2022/06/28 02:55:29;;;;;;;4.78;3.35;;;;;;;19.92;nan;-24371.22;4979711;28;20331;-60
2022/06/28 02:57:54;;;;;;;5.93;3.65;;;;;;;19.92;nan;-24371.22;4980299;28;20244;-60
2022/06/28 03:00:20;;;;;;;6.10;3.65;;;;;;;19.95;nan;-24372.06;4979606;28;20192;-59
2022/06/28 03:02:47;;;;;;;9.65;3.63;;;;;;;20.15;nan;-24377.47;4980120;28;20203;-61
2022/06/28 03:05:15;;;;;;;6.40;4.00;;;;;;;20.11;nan;-24376.50;4979106;28;22019;-60
2022/06/28 03:07:42;;;;;;;8.07;4.07;;;;;;;20.21;nan;-24379.16;4979797;28;20183;-59
2022/06/28 03:10:08;;;;;;;5.22;3.60;;;;;;;20.50;nan;-24387.06;4979531;28;20274;-60
2022/06/28 03:12:34;;;;;;;6.22;3.95;;;;;;;20.43;nan;-24385.13;4977166;28;20191;-60
2022/06/28 03:14:59;;;;;;;6.93;3.75;;;;;;;20.43;nan;-24385.28;4977034;28;20192;-60
2022/06/28 03:17:25;;;;;;;5.57;4.15;;;;;;;20.21;nan;-24379.28;4976515;28;20325;-60
2022/06/28 03:19:51;;;;;;;5.78;3.75;;;;;;;20.45;nan;-24385.69;4977855;28;20317;-60
2022/06/28 03:22:16;;;;;;;5.93;3.90;;;;;;;20.41;nan;-24384.72;4979812;28;20291;-61
2022/06/28 03:24:42;;;;;;;6.22;4.10;;;;;;;20.15;nan;-24377.47;4977405;28;20948;-59
2022/06/28 03:27:08;;;;;;;6.05;4.10;;;;;;;20.27;nan;-24380.81;4981382;28;20180;-57
2022/06/28 03:29:33;;;;;;;6.28;3.90;;;;;;;20.28;nan;-24381.22;4979819;28;21803;-60
2022/06/28 03:31:59;;;;;;;5.18;3.28;;;;;;;20.17;nan;-24378.19;4976557;28;20191;-60
2022/06/28 03:34:24;;;;;;;5.90;4.07;;;;;;;20.60;nan;-24389.97;4977776;28;20184;-61
2022/06/28 03:36:52;;;;;;;5.28;3.72;;;;;;;20.70;nan;-24392.75;4981409;28;20269;-60
2022/06/28 03:39:18;;;;;;;4.65;3.10;;;;;;;21.13;nan;-24404.56;4983324;28;20195;-59
2022/06/28 03:41:44;;;;;;;6.72;4.00;;;;;;;22.17;nan;-24432.81;4983090;28;20194;-60
2022/06/28 03:44:10;;;;;;;6.18;4.15;;;;;;;23.42;nan;-24466.97;4980214;28;20944;-59
2022/06/28 03:46:36;;;;;;;4.95;3.75;;;;;;;23.68;nan;-24474.28;4979508;28;21997;-59
2022/06/28 03:49:01;;;;;;;7.85;3.88;;;;;;;23.90;nan;-24480.22;4980567;28;20246;-58
2022/06/28 03:51:27;;;;;;;4.68;3.15;;;;;;;24.72;nan;-24502.56;4979633;28;21608;-60
2022/06/28 03:53:52;;;;;;;5.30;3.38;;;;;;;25.73;nan;-24530.09;4979844;28;20670;-60
2022/06/28 03:56:18;;;;;;;5.22;3.50;;;;;;;26.61;nan;-24553.84;4979367;28;20659;-61
2022/06/28 03:58:43;;;;;;;4.82;3.50;;;;;;;24.91;nan;-24507.66;4978927;28;20182;-62
2022/06/28 04:01:09;;;;;;;5.40;3.47;;;;;;;24.77;nan;-24503.78;4978555;28;20179;-60
2022/06/28 04:03:35;;;;;;;5.45;3.38;;;;;;;23.80;nan;-24477.31;4982193;28;20623;-59
2022/06/28 04:06:02;;;;;;;6.47;3.67;;;;;;;23.40;nan;-24466.41;4981888;28;20188;-60
2022/06/28 04:08:28;;;;;;;5.18;3.58;;;;;;;23.05;nan;-24457.03;4980847;28;20214;-61
2022/06/28 04:11:13;;;;;;;5.32;3.40;;;;;;;23.24;nan;-24462.28;4982096;28;20196;-60
2022/06/28 04:13:40;;;;;;;4.95;3.63;;;;;;;23.00;nan;-24455.63;4983823;28;20220;-60
2022/06/28 04:16:05;;;;;;;5.32;3.40;;;;;;;22.83;nan;-24451.09;4988027;28;20186;-61
2022/06/28 04:18:31;;;;;;;5.40;3.47;;;;;;;22.47;nan;-24441.13;4981381;28;20211;-59
2022/06/28 04:20:57;;;;;;;4.93;3.60;;;;;;;22.69;nan;-24447.06;4983644;28;20180;-60
2022/06/28 04:23:23;;;;;;;5.05;3.25;;;;;;;22.25;nan;-24435.16;4982649;28;20271;-60
2022/06/28 04:25:49;;;;;;;6.35;3.10;;;;;;;22.51;nan;-24442.09;4977574;28;20196;-61
2022/06/28 04:28:14;;;;;;;4.70;3.45;;;;;;;22.26;nan;-24435.31;4980849;28;20284;-61
2022/06/28 04:30:40;;;;;;;5.00;3.40;;;;;;;22.50;nan;-24441.81;5001809;28;20927;-61
2022/06/28 04:33:05;;;;;;;4.70;3.58;;;;;;;22.43;nan;-24440.00;4986300;28;20188;-61
2022/06/28 04:35:30;;;;;;;6.53;4.03;;;;;;;22.51;nan;-24442.22;4984982;28;20338;-60
2022/06/28 04:37:56;;;;;;;5.95;3.80;;;;;;;22.54;nan;-24442.91;4984081;28;20677;-59
2022/06/28 04:40:21;;;;;;;5.32;3.80;;;;;;;23.41;nan;-24466.69;4982961;28;20638;-60
2022/06/28 04:42:47;;;;;;;4.80;3.38;;;;;;;25.79;nan;-24531.59;4982278;28;20703;-60
2022/06/28 04:45:12;;;;;;;4.65;3.08;;;;;;;26.06;nan;-24538.88;4982130;28;20666;-61
2022/06/28 04:47:38;;;;;;;5.15;3.70;;;;;;;27.87;nan;-24588.13;4983342;28;20866;-60
2022/06/28 04:50:04;;;;;;;4.97;3.58;;;;;;;27.06;nan;-24566.22;4984733;28;20176;-59
2022/06/28 04:52:29;;;;;;;5.25;3.40;;;;;;;26.45;nan;-24549.47;4986521;28;20180;-58
2022/06/28 04:54:54;;;;;;;6.30;3.63;;;;;;;26.06;nan;-24538.88;4986189;28;21286;-60
2022/06/28 04:57:20;;;;;;;5.88;3.75;;;;;;;25.40;nan;-24521.16;4986970;28;20195;-60
2022/06/28 04:59:45;;;;;;;6.28;4.25;;;;;;;25.31;nan;-24518.66;4986362;28;20191;-60
2022/06/28 05:02:11;;;;;;;5.93;3.78;;;;;;;24.93;nan;-24508.34;4987871;28;20243;-62
2022/06/28 05:04:36;;;;;;;4.57;3.33;;;;;;;24.92;nan;-24507.94;4985887;28;20662;-61
2022/06/28 05:07:02;;;;;;;5.38;3.67;;;;;;;25.26;nan;-24517.16;4986520;28;20317;-60
2022/06/28 05:09:28;;;;;;;4.20;3.38;;;;;;;25.07;nan;-24512.06;4981559;28;20287;-59
2022/06/28 05:11:53;;;;;;;6.10;3.78;;;;;;;25.25;nan;-24517.00;4988265;28;20212;-61
2022/06/28 05:14:19;;;;;;;7.53;4.43;;;;;;;25.11;nan;-24513.03;4981319;28;20188;-60
2022/06/28 05:16:45;;;;;;;4.85;3.58;;;;;;;24.84;nan;-24505.72;4978674;28;20598;-60
2022/06/28 05:19:11;;;;;;;6.45;3.83;;;;;;;25.45;nan;-24522.53;4980591;28;20780;-61
2022/06/28 05:21:37;;;;;;;5.13;3.83;;;;;;;25.28;nan;-24517.84;4979974;28;20192;-60
2022/06/28 05:24:03;;;;;;;5.00;3.60;;;;;;;25.04;nan;-24511.25;4981953;28;21332;-61
2022/06/28 05:26:28;;;;;;;4.20;3.15;;;;;;;25.13;nan;-24513.72;4985794;28;20338;-60
2022/06/28 05:28:53;;;;;;;7.03;3.80;;;;;;;25.62;nan;-24527.06;4984255;28;20203;-61
2022/06/28 05:31:19;;;;;;;5.53;3.72;;;;;;;25.73;nan;-24529.94;4984583;28;20188;-59
2022/06/28 05:33:44;;;;;;;4.65;3.47;;;;;;;26.10;nan;-24539.97;4989947;28;20214;-60
2022/06/28 05:36:10;;;;;;;4.82;3.40;;;;;;;26.32;nan;-24546.03;4990252;28;20207;-60
2022/06/28 05:38:35;;;;;;;5.65;3.25;;;;;;;26.47;nan;-24550.00;4928375;28;20226;-60
2022/06/28 05:41:01;;;;;;;4.72;3.05;;;;;;;26.33;nan;-24546.31;4479667;28;21354;-60
2022/06/28 05:43:26;;;;;;;5.90;3.42;;;;;;;26.94;nan;-24562.91;4498134;28;21072;-61
2022/06/28 05:45:52;;;;;;;6.43;3.60;;;;;;;26.70;nan;-24556.47;4952614;28;21204;-63
2022/06/28 05:48:17;;;;;;;4.88;3.47;;;;;;;26.76;nan;-24557.97;4990853;28;20192;-60
2022/06/28 05:50:43;;;;;;;4.38;3.38;;;;;;;26.88;nan;-24561.28;4982093;28;21000;-61
2022/06/28 05:53:08;;;;;;;5.20;3.83;;;;;;;27.32;nan;-24573.22;4983341;28;20584;-61
2022/06/28 05:55:34;;;;;;;11.27;3.70;;;;;;;27.48;nan;-24577.59;4984219;28;20613;-60
2022/06/28 05:58:00;;;;;;;7.53;4.20;;;;;;;27.77;nan;-24585.25;4983064;28;20215;-60
2022/06/28 06:00:25;;;;;;;5.00;3.58;;;;;;;27.92;nan;-24589.38;4984142;28;20176;-60
2022/06/28 06:02:51;;;;;;;4.30;3.60;;;;;;;27.99;nan;-24591.44;4986476;28;20211;-61
2022/06/28 06:05:17;;;;;;;5.25;3.60;;;;;;;27.51;nan;-24578.28;4982390;28;20946;-60
2022/06/28 06:07:42;;;;;;;6.50;3.80;;;;;;;27.56;nan;-24579.66;4981984;28;20951;-60
2022/06/28 06:10:08;;;;;;;5.10;3.28;;;;;;;27.15;nan;-24568.69;4981105;28;20191;-61
2022/06/28 06:12:34;;;;;;;4.75;3.72;;;;;;;27.28;nan;-24572.09;4983419;28;20186;-59
2022/06/28 06:14:59;;;;;;;4.70;3.83;;;;;;;27.32;nan;-24573.22;4983960;28;20180;-62
2022/06/28 06:17:25;;;;;;;4.65;3.17;;;;;;;27.57;nan;-24580.06;4988324;28;20203;-61
2022/06/28 06:19:51;;;;;;;4.88;3.40;;;;;;;27.50;nan;-24578.00;4988365;28;20227;-60
2022/06/28 06:22:16;;;;;;;4.40;3.28;;;;;;;27.24;nan;-24571.00;4982489;28;20234;-59
2022/06/28 06:24:42;;;;;;;5.57;3.58;;;;;;;;;;4984638;28;20288;-60
2022/06/28 06:27:08;;;;;;;5.40;3.90;;;;;;;27.56;nan;-24579.78;4982571;28;20918;-61
2022/06/28 06:29:34;;;;;;;3.65;3.15;;;;;;;27.54;nan;-24579.25;4983313;28;20653;-61
2022/06/28 06:31:59;;;;;;;6.60;3.70;;;;;;;27.70;nan;-24583.47;4982992;28;20256;-61
2022/06/28 06:34:25;;;;;;;4.15;3.33;;;;;;;27.84;nan;-24587.19;4982726;28;20659;-60
2022/06/28 06:36:50;;;;;;;5.30;3.60;;;;;;;27.98;nan;-24591.16;4983086;28;20200;-60
2022/06/28 06:39:16;;;;;;;6.60;3.97;;;;;;;27.87;nan;-24588.13;4984010;28;20187;-60
2022/06/28 06:41:41;;;;;;;4.70;3.35;;;;;;;27.75;nan;-24584.72;4980319;28;20315;-61
2022/06/28 06:44:07;;;;;;;4.25;3.10;;;;;;;27.80;nan;-24586.22;4981025;28;20176;-61
2022/06/28 06:46:33;;;;;;;5.18;3.65;;;;;;;28.02;nan;-24592.25;4982924;28;21570;-60
2022/06/28 06:48:58;;;;;;;4.28;3.40;;;;;;;28.37;nan;-24601.69;4980692;28;20868;-60
2022/06/28 06:51:24;;;;;;;5.88;3.42;;;;;;;28.45;nan;-24603.75;4978978;28;20192;-62
2022/06/28 06:53:51;;;;;;;5.10;3.80;;;;;;;28.46;nan;-24604.03;4983036;28;20186;-61
2022/06/28 06:56:16;;;;;;;5.90;4.40;;;;;;;28.59;nan;-24607.44;4978972;28;20655;-61
2022/06/28 06:58:42;;;;;;;4.50;3.47;;;;;;;28.83;nan;-24614.00;4979327;28;20390;-61
2022/06/28 07:01:07;;;;;;;4.50;3.50;;;;;;;28.80;nan;-24613.19;4979985;28;20688;-60
2022/06/28 07:03:34;;;;;;;4.53;3.70;;;;;;;28.81;nan;-24613.59;4979030;28;20187;-61
2022/06/28 07:05:59;;;;;;;4.93;3.55;;;;;;;28.82;nan;-24613.88;4979333;28;20318;-60
2022/06/28 07:08:25;;;;;;;5.88;3.75;;;;;;;28.88;nan;-24615.50;4980467;28;20616;-60
2022/06/28 07:10:50;;;;;;;5.07;3.42;;;;;;;29.13;nan;-24622.06;4979393;28;20222;-59
2022/06/28 07:13:15;;;;;;;6.75;3.60;;;;;;;29.03;nan;-24619.34;4979093;28;22011;-60
2022/06/28 07:15:41;;;;;;;4.72;3.58;;;;;;;28.97;nan;-24617.81;4978760;28;20183;-60
2022/06/28 07:18:07;;;;;;;6.78;4.38;;;;;;;29.27;nan;-24625.88;4978478;28;20226;-59
2022/06/28 07:20:32;;;;;;;5.72;3.78;;;;;;;29.54;nan;-24633.25;4980011;28;20191;-61
2022/06/28 07:22:58;;;;;;;5.53;3.72;;;;;;;29.59;nan;-24634.50;4980757;28;20201;-60
2022/06/28 07:25:23;;;;;;;6.35;3.75;;;;;;;26.53;nan;-24551.81;4978981;28;20223;-59
2022/06/28 07:27:49;;;;;;;6.22;4.30;;;;;;;29.37;nan;-24628.75;4979527;28;20682;-62
2022/06/28 07:30:14;;;;;;;4.30;3.47;;;;;;;29.92;nan;-24643.50;4980740;28;20190;-60
2022/06/28 07:32:40;;;;;;;5.50;3.75;;;;;;;29.99;nan;-24645.28;4979938;28;21545;-60
2022/06/28 07:35:06;;;;;;;9.48;3.92;;;;;;;30.37;nan;-24655.63;4980216;28;20203;-60
2022/06/28 07:37:32;;;;;;;7.55;3.90;;;;;;;30.37;nan;-24655.63;4980406;28;20207;-60
2022/06/28 07:39:58;;;;;;;4.78;3.85;;;;;;;30.61;nan;-24662.16;4980221;28;20202;-60
2022/06/28 07:42:23;;;;;;;5.53;3.63;;;;;;;30.59;nan;-24661.50;4979769;28;20188;-59
2022/06/28 07:44:49;;;;;;;5.28;3.33;;;;;;;30.36;nan;-24655.34;4978821;28;20226;-60
2022/06/28 07:47:14;;;;;;;5.22;3.80;;;;;;;30.49;nan;-24658.78;4979416;28;20183;-60
2022/06/28 07:52:36;;;;;;;4.95;3.85;;;;;;;31.28;nan;-24680.00;4979733;28;21890;-60
2022/06/28 07:55:04;;;;;;;5.82;3.28;;;;;;;31.25;nan;-24679.31;4979400;28;22282;-60
2022/06/28 07:57:29;;;;;;;4.53;3.40;;;;;;;30.94;nan;-24670.88;4978482;28;20740;-59
2022/06/28 07:59:55;;;;;;;3.85;3.28;;;;;;;31.19;nan;-24677.56;4979703;28;20185;-61
2022/06/28 08:02:20;;;;;;;4.45;3.22;;;;;;;30.71;nan;-24664.75;4980049;28;20183;-60
2022/06/28 08:04:47;;;;;;;4.30;3.00;;;;;;;30.17;nan;-24650.31;4983186;28;20226;-59
2022/06/28 08:07:12;;;;;;;4.55;3.30;;;;;;;30.58;nan;-24661.34;4985178;28;20306;-60
2022/06/28 08:09:38;;;;;;;4.03;3.35;;;;;;;29.96;nan;-24644.59;4983849;28;20684;-60
2022/06/28 08:12:05;;;;;;;4.90;3.63;;;;;;;30.15;nan;-24649.78;4983635;28;20202;-59
2022/06/28 08:14:30;;;;;;;4.60;3.00;;;;;;;30.55;nan;-24660.53;4983194;28;20292;-59
2022/06/28 08:16:56;;;;;;;4.03;3.25;;;;;;;30.48;nan;-24658.63;4983057;28;20245;-60
2022/06/28 08:19:23;;;;;;;4.93;3.55;;;;;;;30.66;nan;-24663.53;4983202;28;20260;-60
2022/06/28 08:21:49;;;;;;;4.65;3.65;;;;;;;30.94;nan;-24670.88;4981860;28;20191;-60
2022/06/28 08:24:15;;;;;;;3.70;3.10;;;;;;;31.28;nan;-24680.00;4982096;28;20207;-60
2022/06/28 08:26:42;;;;;;;4.20;3.50;;;;;;;30.87;nan;-24669.13;4982793;28;20187;-60
2022/06/28 08:29:17;;;;;;;4.97;3.33;;;;;;;30.91;nan;-24670.06;4982145;28;20404;-59
2022/06/28 08:31:44;;;;;;;3.72;3.10;;;;;;;30.87;nan;-24668.97;4984465;28;20661;-60
2022/06/28 08:34:10;;;;;;;5.13;3.22;;;;;;;30.89;nan;-24669.66;4983182;28;20677;-59
2022/06/28 08:36:35;;;;;;;4.82;3.42;;;;;;;30.58;nan;-24661.34;4984402;28;20195;-58
2022/06/28 08:39:03;;;;;;;4.00;3.17;;;;;;;30.34;nan;-24654.69;4981900;28;20589;-59
2022/06/28 08:41:32;;;;;;;4.68;3.50;;;;;;;30.38;nan;-24655.91;4983392;28;20308;-61
2022/06/28 08:43:57;;;;;;;4.45;3.38;;;;;;;30.85;nan;-24668.56;4982303;28;20894;-60
2022/06/28 08:46:26;;;;;;;3.85;3.03;;;;;;;30.25;nan;-24652.50;4981174;28;20203;-60
2022/06/28 08:48:55;;;;;;;4.18;3.28;;;;;;;30.58;nan;-24661.34;4980781;28;20187;-61
2022/06/28 08:51:21;;;;;;;4.70;3.33;;;;;;;30.20;nan;-24651.00;4982255;28;20182;-60
2022/06/28 08:53:48;;;;;;;5.78;3.60;;;;;;;30.19;nan;-24650.88;4982924;28;20191;-60
2022/06/28 08:56:15;;;;;;;8.38;3.30;;;;;;;30.00;nan;-24645.69;4980413;28;20226;-60
2022/06/28 08:58:43;;;;;;;5.40;3.38;;;;;;;30.29;nan;-24653.44;4981833;28;20209;-59
2022/06/28 09:01:12;;;;;;;4.40;3.30;;;;;;;30.59;nan;-24661.63;4982935;28;20269;-60
2022/06/28 09:03:38;;;;;;;6.07;3.10;;;;;;;31.14;nan;-24676.34;4981556;28;21945;-60
2022/06/28 09:06:05;;;;;;;4.65;3.28;;;;;;;31.67;nan;-24690.47;4982610;28;21308;-60
2022/06/28 09:08:30;;;;;;;4.70;3.13;;;;;;;31.70;nan;-24691.28;4982681;28;20195;-60
2022/06/28 09:10:56;;;;;;;4.03;3.20;;;;;;;32.28;nan;-24707.03;4981643;28;20179;-59
2022/06/28 09:13:21;;;;;;;6.43;3.28;;;;;;;32.23;nan;-24705.56;4980987;28;20233;-59
2022/06/28 09:15:53;;;;;;;3.60;2.90;;;;;;;32.18;nan;-24704.19;4979997;28;20184;-61
2022/06/28 09:18:22;;;;;;;3.85;3.15;;;;;;;32.02;nan;-24699.97;4979549;28;20214;-60
2022/06/28 09:20:52;;;;;;;4.30;3.55;;;;;;;32.10;nan;-24702.03;4980164;28;21657;-59
2022/06/28 09:23:28;;;;;;;4.35;3.40;;;;;;;32.42;nan;-24710.72;4980494;28;20853;-59
2022/06/28 09:25:57;;;;;;;3.40;3.00;;;;;;;32.81;nan;-24721.16;4982800;28;22145;-60
2022/06/28 09:28:27;;;;;;;4.15;3.25;;;;;;;32.80;nan;-24720.88;4981152;28;20190;-60
2022/06/28 09:31:15;;;;;;;4.97;3.60;;;;;;;33.16;nan;-24730.50;4981968;28;20705;-61
2022/06/28 09:34:04;;;;;;;5.15;3.45;;;;;;;33.44;nan;-24737.97;4983205;28;20249;-60
2022/06/28 09:37:00;;;;;;;4.50;3.40;;;;;;;33.56;nan;-24741.34;4981802;28;20217;-62
2022/06/28 09:39:28;;;;;;;4.18;3.30;;;;;;;33.05;nan;-24727.66;4981890;28;20781;-62
2022/06/28 09:41:56;;;;;;;4.15;3.58;;;;;;;32.74;nan;-24719.25;4983217;28;20187;-62
2022/06/28 09:44:26;;;;;;;5.38;3.90;;;;;;;32.14;nan;-24703.25;4983310;28;20180;-61
2022/06/28 09:46:54;;;;;;;5.07;3.45;;;;;;;32.68;nan;-24717.63;4980541;28;20183;-60
2022/06/28 09:49:20;;;;;;;5.95;3.80;;;;;;;32.81;nan;-24721.16;4978739;28;20753;-61
2022/06/28 09:51:46;;;;;;;4.65;3.42;;;;;;;32.65;nan;-24716.81;4984854;28;20271;-59
2022/06/28 09:54:11;;;;;;;5.13;3.60;;;;;;;32.56;nan;-24714.38;4982315;28;20183;-60
2022/06/28 09:56:54;;;;;;;5.43;3.63;;;;;;;33.11;nan;-24729.28;4982018;28;20205;-64
2022/06/28 09:59:20;;;;;;;4.45;3.50;;;;;;;33.13;nan;-24729.84;4979947;28;20191;-60
2022/06/28 10:01:48;;;;;;;4.00;3.38;;;;;;;34.12;nan;-24756.38;4980385;28;20275;-61
2022/06/28 10:04:14;;;;;;;3.85;3.20;;;;;;;34.21;nan;-24758.66;4983109;28;20187;-64
2022/06/28 10:06:40;;;;;;;6.75;3.60;;;;;;;34.90;nan;-24777.03;4981852;28;20206;-61
2022/06/28 10:09:06;;;;;;;4.25;3.33;;;;;;;34.28;nan;-24760.56;4980919;28;20183;-62
2022/06/28 10:15:01;;;;;;;5.32;3.90;;;;;;;33.88;nan;-24749.75;4979573;28;20666;-63
2022/06/28 10:17:36;;;;;;;5.40;3.58;;;;;;;34.24;nan;-24759.34;4980306;28;20372;-62
2022/06/28 10:20:04;;;;;;;5.60;3.05;;;;;;;34.27;nan;-24760.16;4974589;28;20229;-61
2022/06/28 10:22:30;;;;;;;4.20;3.30;;;;;;;34.70;nan;-24771.78;4980352;28;20665;-66
2022/06/28 10:24:58;;;;;;;5.57;3.67;;;;;;;35.04;nan;-24780.81;4979509;28;20178;-64
2022/06/28 10:27:24;;;;;;;4.63;3.28;;;;;;;35.10;nan;-24782.44;4979441;28;20270;-61
2022/06/28 10:30:07;;;;;;;4.07;3.35;;;;;;;35.25;nan;-24786.34;4980272;28;20230;-67
2022/06/28 10:33:06;;;;;;;4.57;3.42;;;;;;;34.88;nan;-24776.50;4981213;28;20604;-64
2022/06/28 10:35:31;;;;;;;4.40;3.40;;;;;;;35.06;nan;-24781.34;4979967;28;20673;-60
2022/06/28 10:38:09;;;;;;;4.20;3.22;;;;;;;35.07;nan;-24781.63;4980441;28;22447;-60
2022/06/28 10:40:41;;;;;;;6.35;3.67;;;;;;;35.07;nan;-24781.50;4980381;28;20187;-60
2022/06/28 10:43:07;;;;;;;4.65;3.10;;;;;;;34.07;nan;-24754.88;4979547;28;20244;-60
2022/06/28 10:46:02;;;;;;;2.80;2.50;;;;;;;33.63;nan;-24743.25;4980535;28;20195;-61
2022/06/28 10:48:29;;;;;;;4.82;3.13;;;;;;;33.50;nan;-24739.72;4981048;28;20209;-61
2022/06/28 10:51:03;;;;;;;3.67;2.90;;;;;;;34.10;nan;-24755.81;4980659;28;20229;-60
2022/06/28 10:53:49;;;;;;;3.60;2.92;;;;;;;34.65;nan;-24770.28;4980237;28;20193;-60
2022/06/28 10:56:16;;;;;;;4.43;2.80;;;;;;;34.81;nan;-24774.63;4979196;28;20195;-59
2022/06/28 10:58:55;;;;;;;4.13;3.30;;;;;;;33.85;nan;-24748.94;4979428;28;20207;-60
2022/06/28 11:01:39;;;;;;;4.40;3.20;;;;;;;33.26;nan;-24733.22;4979240;28;20653;-59
2022/06/28 11:04:07;;;;;;;4.28;3.50;;;;;;;33.29;nan;-24734.16;4980415;28;20187;-61
2022/06/28 11:06:43;;;;;;;3.50;3.00;;;;;;;33.35;nan;-24735.66;4980619;28;20197;-61
2022/06/28 11:09:38;;;;;;;4.07;2.97;;;;;;;33.61;nan;-24742.56;4981493;28;20691;-59
2022/06/28 11:12:10;;;;;;;3.38;2.75;;;;;;;33.52;nan;-24740.13;4980574;28;20179;-62
2022/06/28 11:14:48;;;;;;;4.10;3.00;;;;;;;34.21;nan;-24758.53;4979480;28;20180;-59
2022/06/28 11:17:27;;;;;;;3.67;2.92;;;;;;;33.56;nan;-24741.22;4980388;28;20718;-62
2022/06/28 11:19:55;;;;;;;4.05;3.05;;;;;;;33.04;nan;-24727.25;4980374;28;20820;-62
2022/06/28 11:22:29;;;;;;;4.15;3.00;;;;;;;33.13;nan;-24729.84;4980331;28;20180;-63
2022/06/28 11:24:56;;;;;;;4.55;3.22;;;;;;;32.51;nan;-24713.16;4980635;28;20184;-61
2022/06/28 11:27:23;;;;;;;5.15;3.80;;;;;;;32.15;nan;-24703.53;4980522;28;20213;-62
2022/06/28 11:30:09;;;;;;;8.20;4.53;;;;;;;31.73;nan;-24692.09;4980342;28;20662;-60
2022/06/28 11:32:39;;;;;;;9.00;4.22;;;;;;;31.21;nan;-24678.09;4978699;28;20674;-60
2022/06/28 11:35:08;;;;;;;5.05;3.67;;;;;;;31.53;nan;-24686.81;4979434;28;20597;-60
2022/06/28 11:37:59;;;;;;;4.78;3.47;;;;;;;31.70;nan;-24691.28;4983035;28;20237;-59
2022/06/28 11:40:58;;;;;;;5.70;3.67;;;;;;;31.82;nan;-24694.56;4983050;28;20226;-61
2022/06/28 11:43:26;;;;;;;5.50;3.80;;;;;;;32.16;nan;-24703.66;4941169;28;20206;-64
2022/06/28 11:45:53;;;;;;;4.53;3.20;;;;;;;32.32;nan;-24708.13;4984371;28;20190;-60
2022/06/28 11:48:22;;;;;;;4.03;2.88;;;;;;;32.51;nan;-24713.16;4983307;28;20198;-60
2022/06/28 11:50:50;;;;;;;4.53;3.35;;;;;;;33.05;nan;-24727.53;4984333;28;20187;-60
2022/06/28 11:53:16;;;;;;;6.18;3.05;;;;;;;33.28;nan;-24733.91;4983756;28;20680;-60
2022/06/28 11:55:50;;;;;;;3.63;2.83;;;;;;;33.57;nan;-24741.63;4983821;28;20249;-62